sensor_id;sensor_type;location;lat;lon;timestamp;pressure;altitude;pressure_sealevel;temperature
73734;BMP280;62039;50.000;9.064;2023-11-19T00:01:32;100158.38;;;7.37
73734;BMP280;62039;50.000;9.064;2023-11-19T00:03:59;100154.81;;;7.38
73734;BMP280;62039;50.000;9.064;2023-11-19T00:06:27;100149.63;;;7.38
73734;BMP280;62039;50.000;9.064;2023-11-19T00:08:53;100141.81;;;7.38
73734;BMP280;62039;50.000;9.064;2023-11-19T00:11:20;100145.25;;;7.39
73734;BMP280;62039;50.000;9.064;2023-11-19T00:13:50;100152.91;;;7.40
73734;BMP280;62039;50.000;9.064;2023-11-19T00:16:17;100144.16;;;7.41
73734;BMP280;62039;50.000;9.064;2023-11-19T00:18:44;100124.69;;;7.45
73734;BMP280;62039;50.000;9.064;2023-11-19T00:21:10;100136.59;;;7.48
73734;BMP280;62039;50.000;9.064;2023-11-19T00:23:38;100136.41;;;7.50
73734;BMP280;62039;50.000;9.064;2023-11-19T00:26:05;100133.59;;;7.53
73734;BMP280;62039;50.000;9.064;2023-11-19T00:28:32;100130.97;;;7.53
73734;BMP280;62039;50.000;9.064;2023-11-19T00:31:01;100129.88;;;7.55
73734;BMP280;62039;50.000;9.064;2023-11-19T00:33:28;100134.91;;;7.57
73734;BMP280;62039;50.000;9.064;2023-11-19T00:35:55;100139.16;;;7.58
73734;BMP280;62039;50.000;9.064;2023-11-19T00:38:22;100145.03;;;7.60
73734;BMP280;62039;50.000;9.064;2023-11-19T00:40:49;100135.31;;;7.62
73734;BMP280;62039;50.000;9.064;2023-11-19T00:43:16;100132.56;;;7.63
73734;BMP280;62039;50.000;9.064;2023-11-19T00:45:43;100135.69;;;7.67
73734;BMP280;62039;50.000;9.064;2023-11-19T00:48:12;100128.56;;;7.69
73734;BMP280;62039;50.000;9.064;2023-11-19T00:50:39;100127.59;;;7.70
73734;BMP280;62039;50.000;9.064;2023-11-19T00:53:08;100122.38;;;7.70
73734;BMP280;62039;50.000;9.064;2023-11-19T00:55:35;100111.03;;;7.71
73734;BMP280;62039;50.000;9.064;2023-11-19T00:58:11;100116.22;;;7.71
73734;BMP280;62039;50.000;9.064;2023-11-19T01:00:38;100103.22;;;7.71
73734;BMP280;62039;50.000;9.064;2023-11-19T01:03:05;100111.72;;;7.73
73734;BMP280;62039;50.000;9.064;2023-11-19T01:05:35;100111.72;;;7.73
73734;BMP280;62039;50.000;9.064;2023-11-19T01:08:02;100114.16;;;7.74
73734;BMP280;62039;50.000;9.064;2023-11-19T01:10:29;100109.63;;;7.76
73734;BMP280;62039;50.000;9.064;2023-11-19T01:12:56;100098.13;;;7.79
73734;BMP280;62039;50.000;9.064;2023-11-19T01:15:23;100101.53;;;7.79
73734;BMP280;62039;50.000;9.064;2023-11-19T01:17:50;100104.00;;;7.81
73734;BMP280;62039;50.000;9.064;2023-11-19T01:20:19;100097.66;;;7.83
73734;BMP280;62039;50.000;9.064;2023-11-19T01:22:50;100103.69;;;7.84
73734;BMP280;62039;50.000;9.064;2023-11-19T01:25:17;100100.94;;;7.85
73734;BMP280;62039;50.000;9.064;2023-11-19T01:27:44;100110.25;;;7.88
73734;BMP280;62039;50.000;9.064;2023-11-19T01:30:12;100098.72;;;7.91
73734;BMP280;62039;50.000;9.064;2023-11-19T01:32:40;100095.28;;;7.90
73734;BMP280;62039;50.000;9.064;2023-11-19T01:35:08;100095.28;;;7.90
73734;BMP280;62039;50.000;9.064;2023-11-19T01:37:35;100084.06;;;7.90
73734;BMP280;62039;50.000;9.064;2023-11-19T01:40:05;100069.28;;;7.90
73734;BMP280;62039;50.000;9.064;2023-11-19T01:42:36;100058.88;;;7.90
73734;BMP280;62039;50.000;9.064;2023-11-19T01:45:04;100050.44;;;7.88
73734;BMP280;62039;50.000;9.064;2023-11-19T01:47:31;100055.78;;;7.87
73734;BMP280;62039;50.000;9.064;2023-11-19T01:49:59;100070.56;;;7.86
73734;BMP280;62039;50.000;9.064;2023-11-19T01:52:26;100080.13;;;7.85
73734;BMP280;62039;50.000;9.064;2023-11-19T01:54:53;100042.91;;;7.85
73734;BMP280;62039;50.000;9.064;2023-11-19T01:57:24;100029.91;;;7.85
73734;BMP280;62039;50.000;9.064;2023-11-19T01:59:51;100022.09;;;7.85
73734;BMP280;62039;50.000;9.064;2023-11-19T02:02:19;100021.28;;;7.84
73734;BMP280;62039;50.000;9.064;2023-11-19T02:04:46;100064.69;;;7.84
73734;BMP280;62039;50.000;9.064;2023-11-19T02:07:14;100057.56;;;7.86
73734;BMP280;62039;50.000;9.064;2023-11-19T02:09:42;100046.88;;;7.89
73734;BMP280;62039;50.000;9.064;2023-11-19T02:12:09;100048.34;;;7.92
73734;BMP280;62039;50.000;9.064;2023-11-19T02:14:39;100048.88;;;7.95
73734;BMP280;62039;50.000;9.064;2023-11-19T02:17:06;100034.06;;;7.96
73734;BMP280;62039;50.000;9.064;2023-11-19T02:19:33;100022.53;;;7.98
73734;BMP280;62039;50.000;9.064;2023-11-19T02:22:00;100028.41;;;8.00
73734;BMP280;62039;50.000;9.064;2023-11-19T02:24:28;100030.69;;;8.03
73734;BMP280;62039;50.000;9.064;2023-11-19T02:27:02;100035.63;;;8.06
73734;BMP280;62039;50.000;9.064;2023-11-19T02:29:31;100028.50;;;8.08
73734;BMP280;62039;50.000;9.064;2023-11-19T02:31:58;100010.91;;;8.10
73734;BMP280;62039;50.000;9.064;2023-11-19T02:34:26;100004.59;;;8.13
73734;BMP280;62039;50.000;9.064;2023-11-19T02:36:53;100005.28;;;8.15
73734;BMP280;62039;50.000;9.064;2023-11-19T02:39:20;99996.34;;;8.17
73734;BMP280;62039;50.000;9.064;2023-11-19T02:41:47;99984.97;;;8.18
73734;BMP280;62039;50.000;9.064;2023-11-19T02:44:14;99990.03;;;8.20
73734;BMP280;62039;50.000;9.064;2023-11-19T02:46:43;99987.28;;;8.21
73734;BMP280;62039;50.000;9.064;2023-11-19T02:49:10;99982.06;;;8.21
73734;BMP280;62039;50.000;9.064;2023-11-19T02:51:37;100000.13;;;8.23
73734;BMP280;62039;50.000;9.064;2023-11-19T02:54:04;100006.81;;;8.25
73734;BMP280;62039;50.000;9.064;2023-11-19T02:56:31;99999.53;;;8.29
73734;BMP280;62039;50.000;9.064;2023-11-19T02:58:58;99989.63;;;8.33
73734;BMP280;62039;50.000;9.064;2023-11-19T03:01:25;99980.53;;;8.37
73734;BMP280;62039;50.000;9.064;2023-11-19T03:03:55;99972.41;;;8.40
73734;BMP280;62039;50.000;9.064;2023-11-19T03:06:22;99965.44;;;8.40
73734;BMP280;62039;50.000;9.064;2023-11-19T03:08:49;99971.44;;;8.41
73734;BMP280;62039;50.000;9.064;2023-11-19T03:11:16;99968.84;;;8.41
73734;BMP280;62039;50.000;9.064;2023-11-19T03:13:43;99973.09;;;8.42
73734;BMP280;62039;50.000;9.064;2023-11-19T03:16:09;99980.91;;;8.42
73734;BMP280;62039;50.000;9.064;2023-11-19T03:18:36;99979.94;;;8.43
73734;BMP280;62039;50.000;9.064;2023-11-19T03:21:06;99974.41;;;8.46
73734;BMP280;62039;50.000;9.064;2023-11-19T03:23:33;99969.19;;;8.46
73734;BMP280;62039;50.000;9.064;2023-11-19T03:26:00;99963.69;;;8.49
73734;BMP280;62039;50.000;9.064;2023-11-19T03:28:27;99960.13;;;8.50
73734;BMP280;62039;50.000;9.064;2023-11-19T03:30:54;99953.78;;;8.52
73734;BMP280;62039;50.000;9.064;2023-11-19T03:33:21;99957.03;;;8.54
73734;BMP280;62039;50.000;9.064;2023-11-19T03:35:48;99942.09;;;8.56
73734;BMP280;62039;50.000;9.064;2023-11-19T03:38:18;99934.09;;;8.58
73734;BMP280;62039;50.000;9.064;2023-11-19T03:40:44;99944.38;;;8.59
73734;BMP280;62039;50.000;9.064;2023-11-19T03:43:11;99947.94;;;8.58
73734;BMP280;62039;50.000;9.064;2023-11-19T03:45:38;99945.06;;;8.61
73734;BMP280;62039;50.000;9.064;2023-11-19T03:48:05;99943.28;;;8.62
73734;BMP280;62039;50.000;9.064;2023-11-19T03:50:32;99935.47;;;8.62
73734;BMP280;62039;50.000;9.064;2023-11-19T03:52:59;99943.78;;;8.66
73734;BMP280;62039;50.000;9.064;2023-11-19T03:55:29;99948.69;;;8.69
73734;BMP280;62039;50.000;9.064;2023-11-19T03:57:56;99951.13;;;8.70
73734;BMP280;62039;50.000;9.064;2023-11-19T04:00:23;99945.59;;;8.73
73734;BMP280;62039;50.000;9.064;2023-11-19T04:02:50;99955.03;;;8.74
73734;BMP280;62039;50.000;9.064;2023-11-19T04:05:16;99947.72;;;8.78
73734;BMP280;62039;50.000;9.064;2023-11-19T04:07:43;99944.97;;;8.79
73734;BMP280;62039;50.000;9.064;2023-11-19T04:10:10;99941.25;;;8.82
73734;BMP280;62039;50.000;9.064;2023-11-19T04:12:40;99945.97;;;8.86
73734;BMP280;62039;50.000;9.064;2023-11-19T04:15:08;99943.22;;;8.88
73734;BMP280;62039;50.000;9.064;2023-11-19T04:17:35;99952.47;;;8.90
73734;BMP280;62039;50.000;9.064;2023-11-19T04:20:02;99940.78;;;8.94
73734;BMP280;62039;50.000;9.064;2023-11-19T04:22:29;99939.66;;;8.97
73734;BMP280;62039;50.000;9.064;2023-11-19T04:24:56;99935.09;;;8.99
73734;BMP280;62039;50.000;9.064;2023-11-19T04:27:23;99941.78;;;9.01
73734;BMP280;62039;50.000;9.064;2023-11-19T04:29:52;99938.84;;;9.04
73734;BMP280;62039;50.000;9.064;2023-11-19T04:32:21;99930.06;;;9.06
73734;BMP280;62039;50.000;9.064;2023-11-19T04:34:48;99926.50;;;9.07
73734;BMP280;62039;50.000;9.064;2023-11-19T04:37:14;99930.56;;;9.09
73734;BMP280;62039;50.000;9.064;2023-11-19T04:39:44;99927.78;;;9.11
73734;BMP280;62039;50.000;9.064;2023-11-19T04:42:11;99919.66;;;9.14
73734;BMP280;62039;50.000;9.064;2023-11-19T04:44:37;99916.09;;;9.15
73734;BMP280;62039;50.000;9.064;2023-11-19T04:47:07;99923.56;;;9.18
73734;BMP280;62039;50.000;9.064;2023-11-19T04:49:34;99913.13;;;9.18
73734;BMP280;62039;50.000;9.064;2023-11-19T04:52:01;99919.00;;;9.20
73734;BMP280;62039;50.000;9.064;2023-11-19T04:54:28;99913.66;;;9.21
73734;BMP280;62039;50.000;9.064;2023-11-19T04:56:55;99918.72;;;9.23
73734;BMP280;62039;50.000;9.064;2023-11-19T04:59:22;99918.72;;;9.23
73734;BMP280;62039;50.000;9.064;2023-11-19T05:01:48;99908.91;;;9.25
73734;BMP280;62039;50.000;9.064;2023-11-19T05:04:18;99913.81;;;9.28
73734;BMP280;62039;50.000;9.064;2023-11-19T05:06:45;99912.84;;;9.29
73734;BMP280;62039;50.000;9.064;2023-11-19T05:09:12;99916.09;;;9.31
73734;BMP280;62039;50.000;9.064;2023-11-19T05:11:39;99911.53;;;9.33
73734;BMP280;62039;50.000;9.064;2023-11-19T05:14:17;99907.97;;;9.34
73734;BMP280;62039;50.000;9.064;2023-11-19T05:16:44;99912.19;;;9.35
73734;BMP280;62039;50.000;9.064;2023-11-19T05:19:11;99921.50;;;9.37
73734;BMP280;62039;50.000;9.064;2023-11-19T05:21:41;99917.44;;;9.43
73734;BMP280;62039;50.000;9.064;2023-11-19T05:24:08;99917.44;;;9.43
73734;BMP280;62039;50.000;9.064;2023-11-19T05:26:35;99910.25;;;9.45
73734;BMP280;62039;50.000;9.064;2023-11-19T05:29:02;99921.47;;;9.46
73734;BMP280;62039;50.000;9.064;2023-11-19T05:31:29;99917.09;;;9.46
73734;BMP280;62039;50.000;9.064;2023-11-19T05:33:59;99914.16;;;9.49
73734;BMP280;62039;50.000;9.064;2023-11-19T05:36:26;99916.44;;;9.52
73734;BMP280;62039;50.000;9.064;2023-11-19T05:38:55;99915.31;;;9.55
73734;BMP280;62039;50.000;9.064;2023-11-19T05:41:22;99927.38;;;9.56
73734;BMP280;62039;50.000;9.064;2023-11-19T05:43:49;99915.16;;;9.56
73734;BMP280;62039;50.000;9.064;2023-11-19T05:46:16;99902.75;;;9.58
73734;BMP280;62039;50.000;9.064;2023-11-19T05:48:46;99909.31;;;9.62
73734;BMP280;62039;50.000;9.064;2023-11-19T05:51:13;99901.13;;;9.65
73734;BMP280;62039;50.000;9.064;2023-11-19T05:53:40;99914.84;;;9.67
73734;BMP280;62039;50.000;9.064;2023-11-19T05:56:09;99916.47;;;9.68
73734;BMP280;62039;50.000;9.064;2023-11-19T05:58:37;99913.34;;;9.73
73734;BMP280;62039;50.000;9.064;2023-11-19T06:01:05;99907.84;;;9.76
73734;BMP280;62039;50.000;9.064;2023-11-19T06:03:32;99901.44;;;9.78
73734;BMP280;62039;50.000;9.064;2023-11-19T06:05:59;99902.09;;;9.80
73734;BMP280;62039;50.000;9.064;2023-11-19T06:08:26;99902.75;;;9.83
73734;BMP280;62039;50.000;9.064;2023-11-19T06:10:53;99905.22;;;9.84
73734;BMP280;62039;50.000;9.064;2023-11-19T06:13:22;99914.50;;;9.87
73734;BMP280;62039;50.000;9.064;2023-11-19T06:15:51;99905.53;;;9.89
73734;BMP280;62039;50.000;9.064;2023-11-19T06:18:18;99906.00;;;9.93
73734;BMP280;62039;50.000;9.064;2023-11-19T06:20:45;99906.66;;;9.95
73734;BMP280;62039;50.000;9.064;2023-11-19T06:23:12;99907.31;;;9.97
73734;BMP280;62039;50.000;9.064;2023-11-19T06:25:39;99915.78;;;9.99
73734;BMP280;62039;50.000;9.064;2023-11-19T06:28:06;99920.00;;;10.00
73734;BMP280;62039;50.000;9.064;2023-11-19T06:30:35;99910.88;;;10.04
73734;BMP280;62039;50.000;9.064;2023-11-19T06:33:02;99904.69;;;10.05
73734;BMP280;62039;50.000;9.064;2023-11-19T06:35:29;99914.13;;;10.06
73734;BMP280;62039;50.000;9.064;2023-11-19T06:37:56;99901.72;;;10.08
73734;BMP280;62039;50.000;9.064;2023-11-19T06:40:23;99903.38;;;10.09
73734;BMP280;62039;50.000;9.064;2023-11-19T06:42:50;99908.44;;;10.10
73734;BMP280;62039;50.000;9.064;2023-11-19T06:45:17;99912.66;;;10.11
73734;BMP280;62039;50.000;9.064;2023-11-19T06:47:46;99915.75;;;10.15
73734;BMP280;62039;50.000;9.064;2023-11-19T06:50:13;99924.41;;;10.15
73734;BMP280;62039;50.000;9.064;2023-11-19T06:52:40;99917.22;;;10.17
73734;BMP280;62039;50.000;9.064;2023-11-19T06:55:08;99917.03;;;10.19
73734;BMP280;62039;50.000;9.064;2023-11-19T06:57:35;99921.28;;;10.20
73734;BMP280;62039;50.000;9.064;2023-11-19T07:00:03;99921.13;;;10.21
73734;BMP280;62039;50.000;9.064;2023-11-19T07:02:30;99927.00;;;10.24
73734;BMP280;62039;50.000;9.064;2023-11-19T07:05:00;99922.41;;;10.26
73734;BMP280;62039;50.000;9.064;2023-11-19T07:07:27;99926.63;;;10.27
73734;BMP280;62039;50.000;9.064;2023-11-19T07:09:54;99936.09;;;10.28
73734;BMP280;62039;50.000;9.064;2023-11-19T07:12:21;99930.72;;;10.29
73734;BMP280;62039;50.000;9.064;2023-11-19T07:14:47;99931.38;;;10.31
73734;BMP280;62039;50.000;9.064;2023-11-19T07:17:14;99942.44;;;10.33
73734;BMP280;62039;50.000;9.064;2023-11-19T07:19:41;99926.63;;;10.35
73734;BMP280;62039;50.000;9.064;2023-11-19T07:22:11;99935.28;;;10.35
73734;BMP280;62039;50.000;9.064;2023-11-19T07:24:38;99940.50;;;10.35
73734;BMP280;62039;50.000;9.064;2023-11-19T07:27:05;99941.31;;;10.36
73734;BMP280;62039;50.000;9.064;2023-11-19T07:29:32;99941.16;;;10.37
73734;BMP280;62039;50.000;9.064;2023-11-19T07:31:59;99936.56;;;10.39
73734;BMP280;62039;50.000;9.064;2023-11-19T07:34:26;99939.00;;;10.41
73734;BMP280;62039;50.000;9.064;2023-11-19T07:36:54;99933.78;;;10.41
73734;BMP280;62039;50.000;9.064;2023-11-19T07:39:24;99927.41;;;10.43
73734;BMP280;62039;50.000;9.064;2023-11-19T07:41:51;99930.03;;;10.43
73734;BMP280;62039;50.000;9.064;2023-11-19T07:44:19;99939.50;;;10.44
73734;BMP280;62039;50.000;9.064;2023-11-19T07:46:46;99946.31;;;10.45
73734;BMP280;62039;50.000;9.064;2023-11-19T07:49:13;99940.31;;;10.45
73734;BMP280;62039;50.000;9.064;2023-11-19T07:51:40;99942.72;;;10.46
73734;BMP280;62039;50.000;9.064;2023-11-19T07:54:07;99940.13;;;10.46
73734;BMP280;62039;50.000;9.064;2023-11-19T07:56:37;99938.97;;;10.49
73734;BMP280;62039;50.000;9.064;2023-11-19T07:59:04;99938.16;;;10.48
73734;BMP280;62039;50.000;9.064;2023-11-19T08:01:31;99941.28;;;10.52
73734;BMP280;62039;50.000;9.064;2023-11-19T08:03:58;99933.25;;;10.53
73734;BMP280;62039;50.000;9.064;2023-11-19T08:06:26;99938.19;;;10.56
73734;BMP280;62039;50.000;9.064;2023-11-19T08:08:53;99931.97;;;10.57
73734;BMP280;62039;50.000;9.064;2023-11-19T08:11:20;99928.38;;;10.58
73734;BMP280;62039;50.000;9.064;2023-11-19T08:13:49;99936.84;;;10.60
73734;BMP280;62039;50.000;9.064;2023-11-19T08:16:17;99944.34;;;10.64
73734;BMP280;62039;50.000;9.064;2023-11-19T08:18:44;99947.59;;;10.66
73734;BMP280;62039;50.000;9.064;2023-11-19T08:21:11;99937.63;;;10.69
73734;BMP280;62039;50.000;9.064;2023-11-19T08:23:38;99946.56;;;10.75
73734;BMP280;62039;50.000;9.064;2023-11-19T08:26:05;99954.09;;;10.78
73734;BMP280;62039;50.000;9.064;2023-11-19T08:28:33;99953.56;;;10.82
73734;BMP280;62039;50.000;9.064;2023-11-19T08:31:04;99961.09;;;10.85
73734;BMP280;62039;50.000;9.064;2023-11-19T08:33:31;99957.28;;;10.88
73734;BMP280;62039;50.000;9.064;2023-11-19T08:35:58;99949.13;;;10.91
73734;BMP280;62039;50.000;9.064;2023-11-19T08:38:25;99950.25;;;10.96
73734;BMP280;62039;50.000;9.064;2023-11-19T08:40:55;99947.47;;;10.98
73734;BMP280;62039;50.000;9.064;2023-11-19T08:43:22;99948.72;;;11.02
73734;BMP280;62039;50.000;9.064;2023-11-19T08:45:49;99945.78;;;11.05
73734;BMP280;62039;50.000;9.064;2023-11-19T08:48:19;99944.44;;;11.09
73734;BMP280;62039;50.000;9.064;2023-11-19T08:50:46;99946.91;;;11.11
73734;BMP280;62039;50.000;9.064;2023-11-19T08:53:13;99957.81;;;11.14
73734;BMP280;62039;50.000;9.064;2023-11-19T08:55:40;99959.09;;;11.18
73734;BMP280;62039;50.000;9.064;2023-11-19T08:58:06;99960.38;;;11.22
73734;BMP280;62039;50.000;9.064;2023-11-19T09:00:34;99963.28;;;11.27
73734;BMP280;62039;50.000;9.064;2023-11-19T09:03:01;99963.75;;;11.31
73734;BMP280;62039;50.000;9.064;2023-11-19T09:05:31;99970.44;;;11.33
73734;BMP280;62039;50.000;9.064;2023-11-19T09:07:58;99970.09;;;11.36
73734;BMP280;62039;50.000;9.064;2023-11-19T09:10:25;99975.97;;;11.38
73734;BMP280;62039;50.000;9.064;2023-11-19T09:12:52;99965.16;;;11.42
73734;BMP280;62039;50.000;9.064;2023-11-19T09:15:22;99972.66;;;11.45
73734;BMP280;62039;50.000;9.064;2023-11-19T09:17:48;99964.31;;;11.49
73734;BMP280;62039;50.000;9.064;2023-11-19T09:20:16;99969.38;;;11.51
73734;BMP280;62039;50.000;9.064;2023-11-19T09:22:45;99981.09;;;11.55
73734;BMP280;62039;50.000;9.064;2023-11-19T09:25:13;99971.13;;;11.58
73734;BMP280;62039;50.000;9.064;2023-11-19T09:27:40;99957.84;;;11.60
73734;BMP280;62039;50.000;9.064;2023-11-19T09:30:08;99961.75;;;11.64
73734;BMP280;62039;50.000;9.064;2023-11-19T09:32:35;99969.25;;;11.67
73734;BMP280;62039;50.000;9.064;2023-11-19T09:35:03;99962.84;;;11.69
73734;BMP280;62039;50.000;9.064;2023-11-19T09:37:30;99961.69;;;11.72
73734;BMP280;62039;50.000;9.064;2023-11-19T09:39:59;99966.56;;;11.75
73734;BMP280;62039;50.000;9.064;2023-11-19T09:42:26;99971.47;;;11.78
73734;BMP280;62039;50.000;9.064;2023-11-19T09:44:54;99961.44;;;11.82
73734;BMP280;62039;50.000;9.064;2023-11-19T09:47:23;99961.91;;;11.85
73734;BMP280;62039;50.000;9.064;2023-11-19T09:49:52;99975.44;;;11.89
73734;BMP280;62039;50.000;9.064;2023-11-19T09:52:19;99974.13;;;11.93
73734;BMP280;62039;50.000;9.064;2023-11-19T09:54:45;99972.13;;;11.95
73734;BMP280;62039;50.000;9.064;2023-11-19T09:57:16;99969.16;;;11.98
73734;BMP280;62039;50.000;9.064;2023-11-19T09:59:44;99975.81;;;12.00
73734;BMP280;62039;50.000;9.064;2023-11-19T10:02:12;99973.84;;;12.02
73734;BMP280;62039;50.000;9.064;2023-11-19T10:04:40;99975.13;;;12.06
73734;BMP280;62039;50.000;9.064;2023-11-19T10:07:09;99981.97;;;12.07
73734;BMP280;62039;50.000;9.064;2023-11-19T10:09:36;99974.75;;;12.09
73734;BMP280;62039;50.000;9.064;2023-11-19T10:12:04;99984.91;;;12.12
73734;BMP280;62039;50.000;9.064;2023-11-19T10:14:35;99983.72;;;12.15
73734;BMP280;62039;50.000;9.064;2023-11-19T10:17:04;99982.56;;;12.17
73734;BMP280;62039;50.000;9.064;2023-11-19T10:19:31;99989.84;;;12.22
73734;BMP280;62039;50.000;9.064;2023-11-19T10:22:03;99975.22;;;12.28
73734;BMP280;62039;50.000;9.064;2023-11-19T10:24:31;99975.72;;;12.31
73734;BMP280;62039;50.000;9.064;2023-11-19T10:26:59;99989.91;;;12.37
73734;BMP280;62039;50.000;9.064;2023-11-19T10:29:26;99985.94;;;12.41
73734;BMP280;62039;50.000;9.064;2023-11-19T10:31:58;99978.38;;;12.46
73734;BMP280;62039;50.000;9.064;2023-11-19T10:34:45;99978.47;;;12.52
73734;BMP280;62039;50.000;9.064;2023-11-19T10:37:27;99980.19;;;12.60
73734;BMP280;62039;50.000;9.064;2023-11-19T10:39:55;99973.22;;;12.67
73734;BMP280;62039;50.000;9.064;2023-11-19T10:42:22;99979.34;;;12.74
73734;BMP280;62039;50.000;9.064;2023-11-19T10:44:49;99980.44;;;12.80
73734;BMP280;62039;50.000;9.064;2023-11-19T10:47:19;99981.94;;;12.89
73734;BMP280;62039;50.000;9.064;2023-11-19T10:50:05;99981.19;;;12.95
73734;BMP280;62039;50.000;9.064;2023-11-19T10:52:32;99981.91;;;13.04
73734;BMP280;62039;50.000;9.064;2023-11-19T10:55:00;99980.00;;;13.12
73734;BMP280;62039;50.000;9.064;2023-11-19T10:57:30;99968.63;;;13.20
73734;BMP280;62039;50.000;9.064;2023-11-19T11:00:01;99965.06;;;13.27
73734;BMP280;62039;50.000;9.064;2023-11-19T11:02:34;99961.31;;;13.37
73734;BMP280;62039;50.000;9.064;2023-11-19T11:05:02;99957.13;;;13.42
73734;BMP280;62039;50.000;9.064;2023-11-19T11:07:31;99951.16;;;13.48
73734;BMP280;62039;50.000;9.064;2023-11-19T11:10:07;99949.78;;;13.52
73734;BMP280;62039;50.000;9.064;2023-11-19T11:12:36;99943.53;;;13.53
73734;BMP280;62039;50.000;9.064;2023-11-19T11:15:05;99941.50;;;13.55
73734;BMP280;62039;50.000;9.064;2023-11-19T11:17:35;99935.47;;;13.55
73734;BMP280;62039;50.000;9.064;2023-11-19T11:20:04;99945.97;;;13.55
73734;BMP280;62039;50.000;9.064;2023-11-19T11:22:40;99944.75;;;13.57
73734;BMP280;62039;50.000;9.064;2023-11-19T11:25:23;99936.13;;;13.63
73734;BMP280;62039;50.000;9.064;2023-11-19T11:28:05;99934.19;;;13.72
73734;BMP280;62039;50.000;9.064;2023-11-19T11:30:45;99935.47;;;13.83
73734;BMP280;62039;50.000;9.064;2023-11-19T11:33:29;99929.53;;;13.95
73734;BMP280;62039;50.000;9.064;2023-11-19T11:36:07;99936.09;;;14.06
73734;BMP280;62039;50.000;9.064;2023-11-19T11:38:37;99938.56;;;14.14
73734;BMP280;62039;50.000;9.064;2023-11-19T11:41:18;99931.53;;;14.21
73734;BMP280;62039;50.000;9.064;2023-11-19T11:43:47;99943.28;;;14.25
73734;BMP280;62039;50.000;9.064;2023-11-19T11:49:14;99927.13;;;14.28
73734;BMP280;62039;50.000;9.064;2023-11-19T11:51:59;99932.41;;;14.28
73734;BMP280;62039;50.000;9.064;2023-11-19T11:54:28;99931.56;;;14.28
73734;BMP280;62039;50.000;9.064;2023-11-19T11:57:07;99927.13;;;14.28
73734;BMP280;62039;50.000;9.064;2023-11-19T11:59:43;99922.69;;;14.29
73734;BMP280;62039;50.000;9.064;2023-11-19T12:02:11;99932.41;;;14.28
73734;BMP280;62039;50.000;9.064;2023-11-19T12:04:42;99945.53;;;14.28
73734;BMP280;62039;50.000;9.064;2023-11-19T12:07:12;99941.28;;;14.27
73734;BMP280;62039;50.000;9.064;2023-11-19T12:09:40;99938.66;;;14.27
73734;BMP280;62039;50.000;9.064;2023-11-19T12:12:13;99927.13;;;14.28
73734;BMP280;62039;50.000;9.064;2023-11-19T12:15:02;99929.94;;;14.27
73734;BMP280;62039;50.000;9.064;2023-11-19T12:17:43;99915.38;;;14.24
73734;BMP280;62039;50.000;9.064;2023-11-19T12:20:13;99926.88;;;14.23
73734;BMP280;62039;50.000;9.064;2023-11-19T12:22:41;99922.66;;;14.22
73734;BMP280;62039;50.000;9.064;2023-11-19T12:25:10;99903.47;;;14.22
73734;BMP280;62039;50.000;9.064;2023-11-19T12:27:39;99897.59;;;14.20
73734;BMP280;62039;50.000;9.064;2023-11-19T12:30:07;99911.53;;;14.20
73734;BMP280;62039;50.000;9.064;2023-11-19T12:32:38;99912.53;;;14.19
73734;BMP280;62039;50.000;9.064;2023-11-19T12:35:06;99908.47;;;14.17
73734;BMP280;62039;50.000;9.064;2023-11-19T12:37:39;99897.13;;;14.16
73734;BMP280;62039;50.000;9.064;2023-11-19T12:40:17;99896.53;;;14.14
73734;BMP280;62039;50.000;9.064;2023-11-19T12:42:44;99887.41;;;14.10
73734;BMP280;62039;50.000;9.064;2023-11-19T12:45:11;99882.16;;;14.10
73734;BMP280;62039;50.000;9.064;2023-11-19T12:47:39;99892.06;;;14.08
73734;BMP280;62039;50.000;9.064;2023-11-19T12:50:07;99880.13;;;14.05
73734;BMP280;62039;50.000;9.064;2023-11-19T12:52:38;99882.13;;;14.03
73734;BMP280;62039;50.000;9.064;2023-11-19T12:57:53;99869.59;;;13.99
73734;BMP280;62039;50.000;9.064;2023-11-19T13:00:21;99864.34;;;13.99
73734;BMP280;62039;50.000;9.064;2023-11-19T13:02:49;99885.34;;;13.99
73734;BMP280;62039;50.000;9.064;2023-11-19T13:05:24;99869.59;;;13.99
73734;BMP280;62039;50.000;9.064;2023-11-19T13:07:58;99874.47;;;14.02
73734;BMP280;62039;50.000;9.064;2023-11-19T13:10:25;99872.88;;;14.07
73734;BMP280;62039;50.000;9.064;2023-11-19T13:13:02;99867.88;;;14.19
73734;BMP280;62039;50.000;9.064;2023-11-19T13:15:30;99863.69;;;14.31
73734;BMP280;62039;50.000;9.064;2023-11-19T13:17:56;99859.72;;;14.48
73734;BMP280;62039;50.000;9.064;2023-11-19T13:20:23;99858.97;;;14.68
73734;BMP280;62039;50.000;9.064;2023-11-19T13:22:57;99857.03;;;14.89
73734;BMP280;62039;50.000;9.064;2023-11-19T13:25:24;99848.56;;;15.07
73734;BMP280;62039;50.000;9.064;2023-11-19T13:27:52;99853.44;;;15.30
73734;BMP280;62039;50.000;9.064;2023-11-19T13:30:19;99846.16;;;15.52
73734;BMP280;62039;50.000;9.064;2023-11-19T13:32:49;99851.81;;;15.75
73734;BMP280;62039;50.000;9.064;2023-11-19T13:35:17;99846.88;;;15.98
73734;BMP280;62039;50.000;9.064;2023-11-19T13:37:45;99846.66;;;16.20
73734;BMP280;62039;50.000;9.064;2023-11-19T13:40:14;99853.66;;;16.39
73734;BMP280;62039;50.000;9.064;2023-11-19T13:42:42;99849.97;;;16.53
73734;BMP280;62039;50.000;9.064;2023-11-19T13:45:11;99849.88;;;16.66
73734;BMP280;62039;50.000;9.064;2023-11-19T13:47:38;99844.16;;;16.76
73734;BMP280;62039;50.000;9.064;2023-11-19T13:50:07;99836.06;;;16.77
73734;BMP280;62039;50.000;9.064;2023-11-19T13:52:34;99843.34;;;16.75
73734;BMP280;62039;50.000;9.064;2023-11-19T13:55:01;99831.41;;;16.73
73734;BMP280;62039;50.000;9.064;2023-11-19T13:57:32;99837.69;;;16.72
73734;BMP280;62039;50.000;9.064;2023-11-19T14:00:00;99832.03;;;16.68
73734;BMP280;62039;50.000;9.064;2023-11-19T14:02:27;99838.97;;;16.63
73734;BMP280;62039;50.000;9.064;2023-11-19T14:04:54;99835.75;;;16.54
73734;BMP280;62039;50.000;9.064;2023-11-19T14:07:21;99838.88;;;16.44
73734;BMP280;62039;50.000;9.064;2023-11-19T14:09:47;99837.69;;;16.34
73734;BMP280;62039;50.000;9.064;2023-11-19T14:12:14;99836.09;;;16.26
73734;BMP280;62039;50.000;9.064;2023-11-19T14:14:44;99839.97;;;16.17
73734;BMP280;62039;50.000;9.064;2023-11-19T14:17:11;99834.31;;;16.07
73734;BMP280;62039;50.000;9.064;2023-11-19T14:19:40;99843.69;;;15.96
73734;BMP280;62039;50.000;9.064;2023-11-19T14:22:07;99849.34;;;15.87
73734;BMP280;62039;50.000;9.064;2023-11-19T14:24:34;99856.06;;;15.76